This is the latest recevied weather packets stored in our database for station/object VA7SCH-13. If no packets are shown the sender has not sent any weather packets the latest 10 day(s).
| Time | Temp. | Humidity | Pressure | Rain* | Wind** | Luminosity | Snow |
|---|---|---|---|---|---|---|---|
| 1777977927 | 11.11° C | 61% | 1016.4 hPa | 0 mm | - | - | - |
| 1777972526 | 12.22° C | 59% | 1016.7 hPa | 0 mm | - | - | - |
| 1777967127 | 14.44° C | 50% | 1015.6 hPa | 0 mm | - | - | - |
| 1777964126 | 15.56° C | 47% | 1014.4 hPa | 0 mm | - | - | - |
| 1777956945 | 18.89° C | 40% | 1013.3 hPa | 0 mm | - | - | - |
| 1777954525 | 18.89° C | 40% | 1013 hPa | 0 mm | - | - | - |
| 1777952724 | 18.33° C | 45% | 1012.7 hPa | 0 mm | - | - | - |
| 1777952124 | 18.33° C | 45% | 1011.6 hPa | 0 mm | - | - | - |
| 1777950924 | 19.44° C | 43% | 1011.5 hPa | 0 mm | - | - | - |
| 1777948524 | 21.67° C | 37% | 1011.4 hPa | 0 mm | - | - | - |
| 1777944924 | 23.33° C | 35% | 1011.5 hPa | 0 mm | - | - | - |
| 1777944364 | 23.89° C | 32% | 1011.5 hPa | 0 mm | - | - | - |
| 1777942544 | 24.44° C | 31% | 1011.7 hPa | 0 mm | - | - | - |
| 1777941924 | 25° C | 32% | 1011.9 hPa | 0 mm | - | - | - |
| 1777935923 | 26.67° C | 27% | 1013.1 hPa | 0 mm | - | - | - |
| 1777935324 | 27.22° C | 26% | 1013.2 hPa | 0 mm | - | - | - |
| 1777934724 | 27.78° C | 26% | 1013.2 hPa | 0 mm | - | - | - |
| 1777931723 | 26.11° C | 27% | 1012.8 hPa | 0 mm | - | - | - |
| 1777929923 | 26.11° C | 28% | 1013.9 hPa | 0 mm | - | - | - |
| 1777926923 | 27.78° C | 26% | 1014.4 hPa | 0 mm | - | - | - |
| 1777923922 | 27.22° C | 27% | 1014.5 hPa | 0 mm | - | - | - |
| 1777922122 | 26.11° C | 28% | 1014.6 hPa | 0 mm | - | - | - |
| 1777921542 | 25.56° C | 30% | 1015.5 hPa | 0 mm | - | - | - |
| 1777919741 | 25° C | 31% | 1015.8 hPa | 0 mm | - | - | - |
| 1777913721 | 20.56° C | 43% | 1015.7 hPa | 0 mm | - | - | - |
* Rain latest hour (hover to see other rain measurements)
** Current wind speed in m/s (hover to see current wind gust speed)